sensor_id;sensor_type;location;lat;lon;timestamp;temperature;humidity
21271;DHT22;10795;50.796;3.860;2023-05-07T00:01:03;14.50;99.90
21271;DHT22;10795;50.796;3.860;2023-05-07T00:03:29;14.40;99.90
21271;DHT22;10795;50.796;3.860;2023-05-07T00:05:54;14.20;99.90
21271;DHT22;10795;50.796;3.860;2023-05-07T00:08:21;14.00;99.90
21271;DHT22;10795;50.796;3.860;2023-05-07T00:10:47;14.00;99.90
21271;DHT22;10795;50.796;3.860;2023-05-07T00:13:13;14.10;99.90
21271;DHT22;10795;50.796;3.860;2023-05-07T00:15:39;14.40;99.90
21271;DHT22;10795;50.796;3.860;2023-05-07T00:18:05;14.30;99.90
21271;DHT22;10795;50.796;3.860;2023-05-07T00:20:30;14.20;99.90
21271;DHT22;10795;50.796;3.860;2023-05-07T00:22:56;14.30;99.90
21271;DHT22;10795;50.796;3.860;2023-05-07T00:25:22;14.40;99.90
21271;DHT22;10795;50.796;3.860;2023-05-07T00:27:48;14.40;99.90
21271;DHT22;10795;50.796;3.860;2023-05-07T00:30:14;14.40;99.90
21271;DHT22;10795;50.796;3.860;2023-05-07T00:32:40;14.30;99.90
21271;DHT22;10795;50.796;3.860;2023-05-07T00:35:07;14.30;99.90
21271;DHT22;10795;50.796;3.860;2023-05-07T00:37:33;14.30;99.90
21271;DHT22;10795;50.796;3.860;2023-05-07T00:39:59;14.30;99.90
21271;DHT22;10795;50.796;3.860;2023-05-07T00:42:25;14.20;99.90
21271;DHT22;10795;50.796;3.860;2023-05-07T00:44:51;14.10;99.90
21271;DHT22;10795;50.796;3.860;2023-05-07T00:47:17;13.80;99.90
21271;DHT22;10795;50.796;3.860;2023-05-07T00:49:44;13.60;99.90
21271;DHT22;10795;50.796;3.860;2023-05-07T00:52:16;13.50;99.90
21271;DHT22;10795;50.796;3.860;2023-05-07T00:54:42;13.60;99.90
21271;DHT22;10795;50.796;3.860;2023-05-07T00:57:12;13.60;99.90
21271;DHT22;10795;50.796;3.860;2023-05-07T00:59:38;13.50;99.90
21271;DHT22;10795;50.796;3.860;2023-05-07T01:02:07;13.60;99.90
21271;DHT22;10795;50.796;3.860;2023-05-07T01:04:33;13.60;99.90
21271;DHT22;10795;50.796;3.860;2023-05-07T01:07:00;13.70;99.90
21271;DHT22;10795;50.796;3.860;2023-05-07T01:09:28;13.80;99.90
21271;DHT22;10795;50.796;3.860;2023-05-07T01:11:54;13.80;99.90
21271;DHT22;10795;50.796;3.860;2023-05-07T01:14:21;13.80;99.90
21271;DHT22;10795;50.796;3.860;2023-05-07T01:16:47;13.60;99.90
21271;DHT22;10795;50.796;3.860;2023-05-07T01:19:19;13.50;99.90
21271;DHT22;10795;50.796;3.860;2023-05-07T01:21:46;13.50;99.90
21271;DHT22;10795;50.796;3.860;2023-05-07T01:24:14;13.60;99.90
21271;DHT22;10795;50.796;3.860;2023-05-07T01:26:42;13.70;99.90
21271;DHT22;10795;50.796;3.860;2023-05-07T01:29:08;13.60;99.90
21271;DHT22;10795;50.796;3.860;2023-05-07T01:31:34;13.50;99.90
21271;DHT22;10795;50.796;3.860;2023-05-07T01:34:03;13.60;99.90
21271;DHT22;10795;50.796;3.860;2023-05-07T01:36:31;13.50;99.90
21271;DHT22;10795;50.796;3.860;2023-05-07T01:38:59;13.50;99.90
21271;DHT22;10795;50.796;3.860;2023-05-07T01:41:25;13.60;99.90
21271;DHT22;10795;50.796;3.860;2023-05-07T01:43:52;13.60;99.90
21271;DHT22;10795;50.796;3.860;2023-05-07T01:46:19;13.70;99.90
21271;DHT22;10795;50.796;3.860;2023-05-07T01:48:46;13.70;99.90
21271;DHT22;10795;50.796;3.860;2023-05-07T01:51:12;13.80;99.90
21271;DHT22;10795;50.796;3.860;2023-05-07T01:53:39;14.00;99.90
21271;DHT22;10795;50.796;3.860;2023-05-07T01:56:06;14.10;99.90
21271;DHT22;10795;50.796;3.860;2023-05-07T01:58:33;14.00;99.90
21271;DHT22;10795;50.796;3.860;2023-05-07T02:01:00;14.00;99.90
21271;DHT22;10795;50.796;3.860;2023-05-07T02:03:26;13.80;99.90
21271;DHT22;10795;50.796;3.860;2023-05-07T02:06:00;13.70;99.90
21271;DHT22;10795;50.796;3.860;2023-05-07T02:08:36;13.60;99.90
21271;DHT22;10795;50.796;3.860;2023-05-07T02:11:02;13.70;99.90
21271;DHT22;10795;50.796;3.860;2023-05-07T02:13:31;13.80;99.90
21271;DHT22;10795;50.796;3.860;2023-05-07T02:15:57;13.90;99.90
21271;DHT22;10795;50.796;3.860;2023-05-07T02:18:24;13.90;99.90
21271;DHT22;10795;50.796;3.860;2023-05-07T02:20:50;13.90;99.90
21271;DHT22;10795;50.796;3.860;2023-05-07T02:23:16;13.80;99.90
21271;DHT22;10795;50.796;3.860;2023-05-07T02:25:42;13.80;99.90
21271;DHT22;10795;50.796;3.860;2023-05-07T02:28:08;13.80;99.90
21271;DHT22;10795;50.796;3.860;2023-05-07T02:30:54;13.70;99.90
21271;DHT22;10795;50.796;3.860;2023-05-07T02:33:20;13.60;99.90
21271;DHT22;10795;50.796;3.860;2023-05-07T02:35:47;13.60;99.90
21271;DHT22;10795;50.796;3.860;2023-05-07T02:38:14;13.50;99.90
21271;DHT22;10795;50.796;3.860;2023-05-07T02:40:40;13.50;99.90
21271;DHT22;10795;50.796;3.860;2023-05-07T02:43:07;13.50;99.90
21271;DHT22;10795;50.796;3.860;2023-05-07T02:45:33;13.30;99.90
21271;DHT22;10795;50.796;3.860;2023-05-07T02:48:00;13.10;99.90
21271;DHT22;10795;50.796;3.860;2023-05-07T02:50:26;13.10;99.90
21271;DHT22;10795;50.796;3.860;2023-05-07T02:52:53;13.30;99.90
21271;DHT22;10795;50.796;3.860;2023-05-07T02:55:21;13.20;99.90
21271;DHT22;10795;50.796;3.860;2023-05-07T02:57:47;13.20;99.90
21271;DHT22;10795;50.796;3.860;2023-05-07T03:00:19;13.20;99.90
21271;DHT22;10795;50.796;3.860;2023-05-07T03:02:56;13.10;99.90
21271;DHT22;10795;50.796;3.860;2023-05-07T03:05:22;13.10;99.90
21271;DHT22;10795;50.796;3.860;2023-05-07T03:07:48;13.20;99.90
21271;DHT22;10795;50.796;3.860;2023-05-07T03:10:14;13.40;99.90
21271;DHT22;10795;50.796;3.860;2023-05-07T03:12:41;13.60;99.90
21271;DHT22;10795;50.796;3.860;2023-05-07T03:15:09;13.80;99.90
21271;DHT22;10795;50.796;3.860;2023-05-07T03:17:36;14.20;99.90
21271;DHT22;10795;50.796;3.860;2023-05-07T03:20:01;14.50;99.90
21271;DHT22;10795;50.796;3.860;2023-05-07T03:22:28;14.70;99.90
21271;DHT22;10795;50.796;3.860;2023-05-07T03:24:54;14.70;99.90
21271;DHT22;10795;50.796;3.860;2023-05-07T03:27:20;14.80;99.90
21271;DHT22;10795;50.796;3.860;2023-05-07T03:29:47;14.50;99.90
21271;DHT22;10795;50.796;3.860;2023-05-07T03:32:13;14.20;99.90
21271;DHT22;10795;50.796;3.860;2023-05-07T03:34:40;13.90;99.90
21271;DHT22;10795;50.796;3.860;2023-05-07T03:37:06;13.80;99.90
21271;DHT22;10795;50.796;3.860;2023-05-07T03:39:32;13.70;99.90
21271;DHT22;10795;50.796;3.860;2023-05-07T03:41:58;13.50;99.90
21271;DHT22;10795;50.796;3.860;2023-05-07T03:44:24;13.50;99.90
21271;DHT22;10795;50.796;3.860;2023-05-07T03:46:51;13.60;99.90
21271;DHT22;10795;50.796;3.860;2023-05-07T03:49:16;13.60;99.90
21271;DHT22;10795;50.796;3.860;2023-05-07T03:51:42;13.60;99.90
21271;DHT22;10795;50.796;3.860;2023-05-07T03:54:09;13.70;99.90
21271;DHT22;10795;50.796;3.860;2023-05-07T03:56:36;13.60;99.90
21271;DHT22;10795;50.796;3.860;2023-05-07T03:59:02;13.60;99.90
21271;DHT22;10795;50.796;3.860;2023-05-07T04:01:28;13.70;99.90
21271;DHT22;10795;50.796;3.860;2023-05-07T04:03:56;13.60;99.90
21271;DHT22;10795;50.796;3.860;2023-05-07T04:06:23;13.60;99.90
21271;DHT22;10795;50.796;3.860;2023-05-07T04:08:50;13.50;99.90
21271;DHT22;10795;50.796;3.860;2023-05-07T04:11:16;13.40;99.90
21271;DHT22;10795;50.796;3.860;2023-05-07T04:13:42;13.40;99.90
21271;DHT22;10795;50.796;3.860;2023-05-07T04:16:09;13.30;99.90
21271;DHT22;10795;50.796;3.860;2023-05-07T04:18:36;13.20;99.90
21271;DHT22;10795;50.796;3.860;2023-05-07T04:21:03;13.10;99.90
21271;DHT22;10795;50.796;3.860;2023-05-07T04:23:30;13.00;99.90
21271;DHT22;10795;50.796;3.860;2023-05-07T04:25:59;13.00;99.90
21271;DHT22;10795;50.796;3.860;2023-05-07T04:28:34;13.10;99.90
21271;DHT22;10795;50.796;3.860;2023-05-07T04:31:00;13.20;99.90
21271;DHT22;10795;50.796;3.860;2023-05-07T04:33:26;13.20;99.90
21271;DHT22;10795;50.796;3.860;2023-05-07T04:35:56;13.20;99.90
21271;DHT22;10795;50.796;3.860;2023-05-07T04:38:22;13.30;99.90
21271;DHT22;10795;50.796;3.860;2023-05-07T04:40:52;13.40;99.90
21271;DHT22;10795;50.796;3.860;2023-05-07T04:43:21;13.40;99.90
21271;DHT22;10795;50.796;3.860;2023-05-07T04:45:50;13.40;99.90
21271;DHT22;10795;50.796;3.860;2023-05-07T04:48:17;13.50;99.90
21271;DHT22;10795;50.796;3.860;2023-05-07T04:50:49;13.50;99.90
21271;DHT22;10795;50.796;3.860;2023-05-07T04:53:17;13.50;99.90
21271;DHT22;10795;50.796;3.860;2023-05-07T04:55:43;13.60;99.90
21271;DHT22;10795;50.796;3.860;2023-05-07T04:58:11;13.60;99.90
21271;DHT22;10795;50.796;3.860;2023-05-07T05:00:39;13.60;99.90
21271;DHT22;10795;50.796;3.860;2023-05-07T05:03:06;13.70;99.90
21271;DHT22;10795;50.796;3.860;2023-05-07T05:05:33;13.60;99.90
21271;DHT22;10795;50.796;3.860;2023-05-07T05:07:59;13.60;99.90
21271;DHT22;10795;50.796;3.860;2023-05-07T05:10:25;13.70;99.90
21271;DHT22;10795;50.796;3.860;2023-05-07T05:12:51;13.70;99.90
21271;DHT22;10795;50.796;3.860;2023-05-07T05:15:18;13.60;99.90
21271;DHT22;10795;50.796;3.860;2023-05-07T05:17:44;13.60;99.90
21271;DHT22;10795;50.796;3.860;2023-05-07T05:20:10;13.50;99.90
21271;DHT22;10795;50.796;3.860;2023-05-07T05:22:38;13.70;99.90
21271;DHT22;10795;50.796;3.860;2023-05-07T05:25:05;13.60;99.90
21271;DHT22;10795;50.796;3.860;2023-05-07T05:27:31;13.80;99.90
21271;DHT22;10795;50.796;3.860;2023-05-07T05:29:57;13.70;99.90
21271;DHT22;10795;50.796;3.860;2023-05-07T05:32:23;13.70;99.90
21271;DHT22;10795;50.796;3.860;2023-05-07T05:34:50;13.70;99.90
21271;DHT22;10795;50.796;3.860;2023-05-07T05:37:16;13.80;99.90
21271;DHT22;10795;50.796;3.860;2023-05-07T05:39:43;13.80;99.90
21271;DHT22;10795;50.796;3.860;2023-05-07T05:42:09;13.80;99.90
21271;DHT22;10795;50.796;3.860;2023-05-07T05:44:35;13.90;99.90
21271;DHT22;10795;50.796;3.860;2023-05-07T05:47:02;13.80;99.90
21271;DHT22;10795;50.796;3.860;2023-05-07T05:49:28;13.80;99.90
21271;DHT22;10795;50.796;3.860;2023-05-07T05:51:54;13.90;99.90
21271;DHT22;10795;50.796;3.860;2023-05-07T05:54:23;13.90;99.90
21271;DHT22;10795;50.796;3.860;2023-05-07T05:56:49;14.00;99.90
21271;DHT22;10795;50.796;3.860;2023-05-07T05:59:16;14.00;99.90
21271;DHT22;10795;50.796;3.860;2023-05-07T06:01:42;14.00;99.90
21271;DHT22;10795;50.796;3.860;2023-05-07T06:04:08;14.00;99.90
21271;DHT22;10795;50.796;3.860;2023-05-07T06:06:34;14.10;99.90
21271;DHT22;10795;50.796;3.860;2023-05-07T06:09:01;14.10;99.90
21271;DHT22;10795;50.796;3.860;2023-05-07T06:11:34;14.10;99.90
21271;DHT22;10795;50.796;3.860;2023-05-07T06:14:00;14.10;99.90
21271;DHT22;10795;50.796;3.860;2023-05-07T06:16:27;14.10;99.90
21271;DHT22;10795;50.796;3.860;2023-05-07T06:18:53;14.10;99.90
21271;DHT22;10795;50.796;3.860;2023-05-07T06:21:19;14.10;99.90
21271;DHT22;10795;50.796;3.860;2023-05-07T06:23:45;14.10;99.90
21271;DHT22;10795;50.796;3.860;2023-05-07T06:26:11;14.20;99.90
21271;DHT22;10795;50.796;3.860;2023-05-07T06:28:41;14.20;99.90
21271;DHT22;10795;50.796;3.860;2023-05-07T06:31:20;14.20;99.90
21271;DHT22;10795;50.796;3.860;2023-05-07T06:33:56;14.20;99.90
21271;DHT22;10795;50.796;3.860;2023-05-07T06:36:26;14.30;99.90
21271;DHT22;10795;50.796;3.860;2023-05-07T06:38:55;14.40;99.90
21271;DHT22;10795;50.796;3.860;2023-05-07T06:41:21;14.50;99.90
21271;DHT22;10795;50.796;3.860;2023-05-07T06:43:47;14.50;99.90
21271;DHT22;10795;50.796;3.860;2023-05-07T06:46:45;14.60;99.90
21271;DHT22;10795;50.796;3.860;2023-05-07T06:49:13;14.60;99.90
21271;DHT22;10795;50.796;3.860;2023-05-07T06:51:39;14.60;99.90
21271;DHT22;10795;50.796;3.860;2023-05-07T06:54:05;14.70;99.90
21271;DHT22;10795;50.796;3.860;2023-05-07T06:56:34;14.70;99.90
21271;DHT22;10795;50.796;3.860;2023-05-07T06:59:02;14.70;99.90
21271;DHT22;10795;50.796;3.860;2023-05-07T07:01:33;14.80;99.90
21271;DHT22;10795;50.796;3.860;2023-05-07T07:04:00;14.80;99.90
21271;DHT22;10795;50.796;3.860;2023-05-07T07:06:28;14.90;99.90
21271;DHT22;10795;50.796;3.860;2023-05-07T07:08:55;14.90;99.90
21271;DHT22;10795;50.796;3.860;2023-05-07T07:11:21;15.00;99.90
21271;DHT22;10795;50.796;3.860;2023-05-07T07:13:47;15.00;99.90
21271;DHT22;10795;50.796;3.860;2023-05-07T07:16:12;14.90;99.90
21271;DHT22;10795;50.796;3.860;2023-05-07T07:18:38;14.90;99.90
21271;DHT22;10795;50.796;3.860;2023-05-07T07:21:04;14.80;99.90
21271;DHT22;10795;50.796;3.860;2023-05-07T07:23:30;14.90;99.90
21271;DHT22;10795;50.796;3.860;2023-05-07T07:25:56;15.00;99.90
21271;DHT22;10795;50.796;3.860;2023-05-07T07:28:22;15.10;99.90
21271;DHT22;10795;50.796;3.860;2023-05-07T07:30:48;14.90;99.90
21271;DHT22;10795;50.796;3.860;2023-05-07T07:33:16;14.80;99.90
21271;DHT22;10795;50.796;3.860;2023-05-07T07:35:42;14.60;99.90
21271;DHT22;10795;50.796;3.860;2023-05-07T07:38:09;14.70;99.90
21271;DHT22;10795;50.796;3.860;2023-05-07T07:40:35;14.80;99.90
21271;DHT22;10795;50.796;3.860;2023-05-07T07:43:02;14.90;99.90
21271;DHT22;10795;50.796;3.860;2023-05-07T07:45:28;14.90;99.90
21271;DHT22;10795;50.796;3.860;2023-05-07T07:47:54;14.90;99.90
21271;DHT22;10795;50.796;3.860;2023-05-07T07:50:21;14.90;99.90
21271;DHT22;10795;50.796;3.860;2023-05-07T07:52:48;14.80;99.90
21271;DHT22;10795;50.796;3.860;2023-05-07T07:55:19;14.80;99.90
21271;DHT22;10795;50.796;3.860;2023-05-07T07:57:46;14.80;99.90
21271;DHT22;10795;50.796;3.860;2023-05-07T08:00:13;14.80;99.90
21271;DHT22;10795;50.796;3.860;2023-05-07T08:02:51;14.70;99.90
21271;DHT22;10795;50.796;3.860;2023-05-07T08:05:24;14.70;99.90
21271;DHT22;10795;50.796;3.860;2023-05-07T08:07:50;14.90;99.90
21271;DHT22;10795;50.796;3.860;2023-05-07T08:10:21;15.00;99.90
21271;DHT22;10795;50.796;3.860;2023-05-07T08:12:51;15.10;99.90
21271;DHT22;10795;50.796;3.860;2023-05-07T08:15:17;15.30;99.90
21271;DHT22;10795;50.796;3.860;2023-05-07T08:17:43;15.50;99.90
21271;DHT22;10795;50.796;3.860;2023-05-07T08:20:10;15.60;99.90
21271;DHT22;10795;50.796;3.860;2023-05-07T08:22:37;15.50;99.90
21271;DHT22;10795;50.796;3.860;2023-05-07T08:25:03;15.50;99.90
21271;DHT22;10795;50.796;3.860;2023-05-07T08:27:29;15.50;99.90
21271;DHT22;10795;50.796;3.860;2023-05-07T08:29:55;15.60;99.90
21271;DHT22;10795;50.796;3.860;2023-05-07T08:32:22;15.70;99.90
21271;DHT22;10795;50.796;3.860;2023-05-07T08:34:48;15.80;99.90
21271;DHT22;10795;50.796;3.860;2023-05-07T08:37:14;15.80;99.90
21271;DHT22;10795;50.796;3.860;2023-05-07T08:39:40;15.80;99.90
21271;DHT22;10795;50.796;3.860;2023-05-07T08:42:13;15.80;99.90
21271;DHT22;10795;50.796;3.860;2023-05-07T08:44:45;16.20;99.90
21271;DHT22;10795;50.796;3.860;2023-05-07T08:47:16;16.40;99.90
21271;DHT22;10795;50.796;3.860;2023-05-07T08:49:44;16.30;99.90
21271;DHT22;10795;50.796;3.860;2023-05-07T08:52:12;16.20;99.90
21271;DHT22;10795;50.796;3.860;2023-05-07T08:54:39;15.90;99.90
21271;DHT22;10795;50.796;3.860;2023-05-07T08:57:07;15.80;99.90
21271;DHT22;10795;50.796;3.860;2023-05-07T08:59:34;16.20;99.90
21271;DHT22;10795;50.796;3.860;2023-05-07T09:02:00;16.20;99.90
21271;DHT22;10795;50.796;3.860;2023-05-07T09:04:27;16.50;99.90
21271;DHT22;10795;50.796;3.860;2023-05-07T09:06:53;16.50;99.90
21271;DHT22;10795;50.796;3.860;2023-05-07T09:09:22;15.90;99.90
21271;DHT22;10795;50.796;3.860;2023-05-07T09:11:56;15.60;99.90
21271;DHT22;10795;50.796;3.860;2023-05-07T09:14:24;15.80;99.90
21271;DHT22;10795;50.796;3.860;2023-05-07T09:16:52;15.90;99.90
21271;DHT22;10795;50.796;3.860;2023-05-07T09:19:26;15.90;99.90
21271;DHT22;10795;50.796;3.860;2023-05-07T09:22:05;15.70;99.90
21271;DHT22;10795;50.796;3.860;2023-05-07T09:24:50;15.70;99.90
21271;DHT22;10795;50.796;3.860;2023-05-07T09:27:18;15.60;99.90
21271;DHT22;10795;50.796;3.860;2023-05-07T09:29:45;15.80;99.90
21271;DHT22;10795;50.796;3.860;2023-05-07T09:32:12;15.60;99.90
21271;DHT22;10795;50.796;3.860;2023-05-07T09:34:39;15.50;99.90
21271;DHT22;10795;50.796;3.860;2023-05-07T09:37:07;15.50;99.90
21271;DHT22;10795;50.796;3.860;2023-05-07T09:39:46;15.40;99.90
21271;DHT22;10795;50.796;3.860;2023-05-07T09:42:14;15.50;99.90
21271;DHT22;10795;50.796;3.860;2023-05-07T09:44:43;15.50;99.90
21271;DHT22;10795;50.796;3.860;2023-05-07T09:47:18;15.50;99.90
21271;DHT22;10795;50.796;3.860;2023-05-07T09:49:48;15.60;99.90
21271;DHT22;10795;50.796;3.860;2023-05-07T09:52:17;15.60;99.90
21271;DHT22;10795;50.796;3.860;2023-05-07T09:54:48;15.90;99.90
21271;DHT22;10795;50.796;3.860;2023-05-07T09:57:17;16.00;99.90
21271;DHT22;10795;50.796;3.860;2023-05-07T09:59:49;15.90;99.90
21271;DHT22;10795;50.796;3.860;2023-05-07T10:02:19;15.90;99.90
21271;DHT22;10795;50.796;3.860;2023-05-07T10:04:50;15.80;99.90
21271;DHT22;10795;50.796;3.860;2023-05-07T10:07:21;15.80;99.90
21271;DHT22;10795;50.796;3.860;2023-05-07T10:09:51;15.90;99.90
21271;DHT22;10795;50.796;3.860;2023-05-07T10:12:25;16.10;99.90
21271;DHT22;10795;50.796;3.860;2023-05-07T10:14:53;16.40;99.90
21271;DHT22;10795;50.796;3.860;2023-05-07T10:17:20;16.40;99.90
21271;DHT22;10795;50.796;3.860;2023-05-07T10:19:50;16.30;99.90
21271;DHT22;10795;50.796;3.860;2023-05-07T10:22:20;16.10;99.90
21271;DHT22;10795;50.796;3.860;2023-05-07T10:24:49;16.50;99.90
21271;DHT22;10795;50.796;3.860;2023-05-07T10:27:17;16.10;99.90
21271;DHT22;10795;50.796;3.860;2023-05-07T10:32:39;16.10;99.90
21271;DHT22;10795;50.796;3.860;2023-05-07T10:35:26;16.30;99.90
21271;DHT22;10795;50.796;3.860;2023-05-07T10:37:53;16.40;99.90
21271;DHT22;10795;50.796;3.860;2023-05-07T10:40:21;16.50;99.90
21271;DHT22;10795;50.796;3.860;2023-05-07T10:42:58;16.60;99.90
21271;DHT22;10795;50.796;3.860;2023-05-07T10:45:34;16.50;99.90
21271;DHT22;10795;50.796;3.860;2023-05-07T10:48:07;16.50;99.90
21271;DHT22;10795;50.796;3.860;2023-05-07T10:50:38;16.40;99.90
21271;DHT22;10795;50.796;3.860;2023-05-07T10:55:51;16.50;99.90
21271;DHT22;10795;50.796;3.860;2023-05-07T10:58:27;16.40;99.90
21271;DHT22;10795;50.796;3.860;2023-05-07T11:01:05;16.50;99.90
21271;DHT22;10795;50.796;3.860;2023-05-07T11:04:14;16.60;99.90
21271;DHT22;10795;50.796;3.860;2023-05-07T11:15:11;16.80;99.90
21271;DHT22;10795;50.796;3.860;2023-05-07T11:17:55;16.80;99.90
21271;DHT22;10795;50.796;3.860;2023-05-07T11:26:11;17.10;99.90
21271;DHT22;10795;50.796;3.860;2023-05-07T11:28:39;17.10;99.90
21271;DHT22;10795;50.796;3.860;2023-05-07T11:31:06;17.10;99.90
21271;DHT22;10795;50.796;3.860;2023-05-07T11:33:32;17.00;99.90
21271;DHT22;10795;50.796;3.860;2023-05-07T11:36:05;17.00;99.90
21271;DHT22;10795;50.796;3.860;2023-05-07T11:38:36;17.00;99.90
21271;DHT22;10795;50.796;3.860;2023-05-07T11:41:02;17.10;99.90
21271;DHT22;10795;50.796;3.860;2023-05-07T11:43:31;17.10;99.90
21271;DHT22;10795;50.796;3.860;2023-05-07T11:46:11;17.10;99.90
21271;DHT22;10795;50.796;3.860;2023-05-07T11:48:38;17.20;99.90
21271;DHT22;10795;50.796;3.860;2023-05-07T11:51:05;17.30;99.90
21271;DHT22;10795;50.796;3.860;2023-05-07T11:53:41;17.20;99.90
21271;DHT22;10795;50.796;3.860;2023-05-07T11:56:12;17.20;99.90
21271;DHT22;10795;50.796;3.860;2023-05-07T11:58:39;17.40;99.90
21271;DHT22;10795;50.796;3.860;2023-05-07T12:01:08;17.60;99.90
21271;DHT22;10795;50.796;3.860;2023-05-07T12:03:35;17.60;99.90
21271;DHT22;10795;50.796;3.860;2023-05-07T12:06:04;17.40;99.90
21271;DHT22;10795;50.796;3.860;2023-05-07T12:08:31;17.50;99.90
21271;DHT22;10795;50.796;3.860;2023-05-07T12:10:56;17.30;99.90
21271;DHT22;10795;50.796;3.860;2023-05-07T12:13:24;17.40;99.90
21271;DHT22;10795;50.796;3.860;2023-05-07T12:16:00;17.50;99.90
21271;DHT22;10795;50.796;3.860;2023-05-07T12:18:28;17.60;99.90
21271;DHT22;10795;50.796;3.860;2023-05-07T12:20:55;17.50;99.90
21271;DHT22;10795;50.796;3.860;2023-05-07T12:23:22;17.60;99.90
21271;DHT22;10795;50.796;3.860;2023-05-07T12:25:48;17.70;99.90
21271;DHT22;10795;50.796;3.860;2023-05-07T12:28:15;17.90;99.90
21271;DHT22;10795;50.796;3.860;2023-05-07T12:30:43;17.80;99.90
21271;DHT22;10795;50.796;3.860;2023-05-07T12:33:10;17.90;99.90
21271;DHT22;10795;50.796;3.860;2023-05-07T12:35:40;17.90;99.90
21271;DHT22;10795;50.796;3.860;2023-05-07T12:38:12;17.90;99.90
21271;DHT22;10795;50.796;3.860;2023-05-07T12:40:40;18.10;99.90
21271;DHT22;10795;50.796;3.860;2023-05-07T12:43:06;18.00;99.90
21271;DHT22;10795;50.796;3.860;2023-05-07T12:45:37;18.20;99.90
21271;DHT22;10795;50.796;3.860;2023-05-07T12:48:05;18.10;99.90
21271;DHT22;10795;50.796;3.860;2023-05-07T12:50:32;18.20;99.90
21271;DHT22;10795;50.796;3.860;2023-05-07T12:52:58;18.10;99.90
21271;DHT22;10795;50.796;3.860;2023-05-07T12:55:25;17.90;99.90
21271;DHT22;10795;50.796;3.860;2023-05-07T12:57:54;18.10;99.90
21271;DHT22;10795;50.796;3.860;2023-05-07T13:00:38;18.60;99.90
21271;DHT22;10795;50.796;3.860;2023-05-07T13:03:04;18.90;99.90
21271;DHT22;10795;50.796;3.860;2023-05-07T13:05:31;18.50;99.90
21271;DHT22;10795;50.796;3.860;2023-05-07T13:07:58;18.20;99.90
21271;DHT22;10795;50.796;3.860;2023-05-07T13:10:24;18.30;99.90
21271;DHT22;10795;50.796;3.860;2023-05-07T13:12:51;18.60;99.90
21271;DHT22;10795;50.796;3.860;2023-05-07T13:15:17;18.50;99.90
21271;DHT22;10795;50.796;3.860;2023-05-07T13:17:43;18.40;99.90
21271;DHT22;10795;50.796;3.860;2023-05-07T13:20:10;18.30;99.90
21271;DHT22;10795;50.796;3.860;2023-05-07T13:22:37;18.50;99.90
21271;DHT22;10795;50.796;3.860;2023-05-07T13:25:03;18.50;99.90
21271;DHT22;10795;50.796;3.860;2023-05-07T13:27:29;18.50;99.90
21271;DHT22;10795;50.796;3.860;2023-05-07T13:29:56;18.40;99.90
21271;DHT22;10795;50.796;3.860;2023-05-07T13:32:22;18.60;99.90
21271;DHT22;10795;50.796;3.860;2023-05-07T13:34:48;18.50;99.90
21271;DHT22;10795;50.796;3.860;2023-05-07T13:37:14;18.60;99.90
21271;DHT22;10795;50.796;3.860;2023-05-07T13:39:40;18.60;99.90
21271;DHT22;10795;50.796;3.860;2023-05-07T13:42:06;18.80;99.90
21271;DHT22;10795;50.796;3.860;2023-05-07T13:44:34;18.80;99.90
21271;DHT22;10795;50.796;3.860;2023-05-07T13:47:01;18.90;99.90
21271;DHT22;10795;50.796;3.860;2023-05-07T13:49:27;18.90;99.90
21271;DHT22;10795;50.796;3.860;2023-05-07T13:51:53;19.00;99.90
21271;DHT22;10795;50.796;3.860;2023-05-07T13:54:19;19.00;99.90
21271;DHT22;10795;50.796;3.860;2023-05-07T13:56:45;19.10;99.90
21271;DHT22;10795;50.796;3.860;2023-05-07T13:59:10;19.10;99.90
21271;DHT22;10795;50.796;3.860;2023-05-07T14:01:37;18.90;99.90
21271;DHT22;10795;50.796;3.860;2023-05-07T14:04:03;18.90;99.90
21271;DHT22;10795;50.796;3.860;2023-05-07T14:06:30;19.20;99.90
21271;DHT22;10795;50.796;3.860;2023-05-07T14:08:55;19.20;99.90
21271;DHT22;10795;50.796;3.860;2023-05-07T14:11:23;19.20;99.90
21271;DHT22;10795;50.796;3.860;2023-05-07T14:13:49;19.20;99.90
21271;DHT22;10795;50.796;3.860;2023-05-07T14:16:15;19.20;99.90
21271;DHT22;10795;50.796;3.860;2023-05-07T14:18:41;19.10;99.90
21271;DHT22;10795;50.796;3.860;2023-05-07T14:21:07;19.20;99.90
21271;DHT22;10795;50.796;3.860;2023-05-07T14:23:35;19.40;99.90
21271;DHT22;10795;50.796;3.860;2023-05-07T14:26:00;19.40;99.90
21271;DHT22;10795;50.796;3.860;2023-05-07T14:28:26;19.60;99.90
21271;DHT22;10795;50.796;3.860;2023-05-07T14:30:52;19.40;99.90
21271;DHT22;10795;50.796;3.860;2023-05-07T14:33:18;19.40;99.90
21271;DHT22;10795;50.796;3.860;2023-05-07T14:35:44;19.70;99.90
21271;DHT22;10795;50.796;3.860;2023-05-07T14:38:14;19.70;99.90
21271;DHT22;10795;50.796;3.860;2023-05-07T14:40:41;19.60;99.90
21271;DHT22;10795;50.796;3.860;2023-05-07T14:43:07;19.60;99.90
21271;DHT22;10795;50.796;3.860;2023-05-07T14:45:32;19.80;99.90
21271;DHT22;10795;50.796;3.860;2023-05-07T14:47:58;20.00;99.90
21271;DHT22;10795;50.796;3.860;2023-05-07T14:50:24;20.50;99.90
21271;DHT22;10795;50.796;3.860;2023-05-07T14:52:50;20.20;99.90
21271;DHT22;10795;50.796;3.860;2023-05-07T14:55:16;20.10;99.90
21271;DHT22;10795;50.796;3.860;2023-05-07T14:57:42;20.10;99.90
21271;DHT22;10795;50.796;3.860;2023-05-07T15:00:08;19.70;99.90
21271;DHT22;10795;50.796;3.860;2023-05-07T15:02:35;20.00;99.90
21271;DHT22;10795;50.796;3.860;2023-05-07T15:05:01;19.70;99.90
21271;DHT22;10795;50.796;3.860;2023-05-07T15:07:27;19.70;99.90
21271;DHT22;10795;50.796;3.860;2023-05-07T15:09:53;19.50;99.90
21271;DHT22;10795;50.796;3.860;2023-05-07T15:12:19;19.70;99.90
21271;DHT22;10795;50.796;3.860;2023-05-07T15:14:45;19.80;99.90
21271;DHT22;10795;50.796;3.860;2023-05-07T15:17:12;19.50;99.90
21271;DHT22;10795;50.796;3.860;2023-05-07T15:19:37;19.20;99.90
21271;DHT22;10795;50.796;3.860;2023-05-07T15:22:05;19.20;99.90
21271;DHT22;10795;50.796;3.860;2023-05-07T15:24:31;19.30;99.90
21271;DHT22;10795;50.796;3.860;2023-05-07T15:26:57;19.60;99.90
21271;DHT22;10795;50.796;3.860;2023-05-07T15:29:24;19.50;99.90
21271;DHT22;10795;50.796;3.860;2023-05-07T15:31:50;19.50;99.90
21271;DHT22;10795;50.796;3.860;2023-05-07T15:34:17;19.30;99.90
21271;DHT22;10795;50.796;3.860;2023-05-07T15:36:43;19.30;99.90
21271;DHT22;10795;50.796;3.860;2023-05-07T15:39:09;19.60;99.90
21271;DHT22;10795;50.796;3.860;2023-05-07T15:41:35;19.30;99.90
21271;DHT22;10795;50.796;3.860;2023-05-07T15:44:02;19.30;99.90
21271;DHT22;10795;50.796;3.860;2023-05-07T15:46:28;19.60;99.90
21271;DHT22;10795;50.796;3.860;2023-05-07T15:48:55;19.40;99.90
21271;DHT22;10795;50.796;3.860;2023-05-07T15:51:21;18.80;99.90
21271;DHT22;10795;50.796;3.860;2023-05-07T15:53:48;19.00;99.90